Los Angeles, California
Traffic Map
Current Weather Conditions
Los Angeles, California
Clear
Clear
14°
Feels Like: 14°
Wind Chill: 14° Ceiling: Unl
Heat Index: 14° Visibility: 10mi
Dew Point: 12° Wind: 0mph
Humidity: 84% Direction: ° ()
Pressure: 29.98in Gusts: 0mph
Raw Report DataKCQT 280747Z AUTO 00000KT 10SM CLR 14/12 A2998 RMK AO2 SLP151 T01440117 402220144 $
Traffic Incident Summary
Active as of:
Severity:
Category:
InformationThere was an issue retrieving the traffic information for this location. Please try a different location or try again shortly.
Advertisements
Track Severe Weather on mobile